首页
METAR-TAF:

METAR-TAF

机场 :

Oakland County International Airport

Pontiac, 密歇根州, 美国

纬度: 42-39-47N, 经度: 083-24-36W, 海拔: 299米

当前天气观测

该预报发布于54分钟前的07:53 UTC
风速5节,风向
温度 -1°C
湿度 69%
气压 1019 hPa
能見度: 16.1公里
天空无云

METAR: KPTK 130753Z AUTO 18005KT 10SM CLR M01/M06 A3009 RMK AO2 SLP202 T10111056

时间: 03:47 (08:47 UTC)

预报

该预报发布于3小时和27分钟前的05:20 UTC
预报有效从13日的 06点(UTC)到 14日的 06点(UTC)
风速8节,风向
能見度: 10公里
散云层高于10000英尺
散云层高于25000英尺
从 13日的 1100点(UTC)
风速9节,风向
能見度: 10公里
散云层高于7000英尺
多云层高于10000英尺
从 13日的 1800点(UTC)
风速6节,风向
能見度: 10公里
多云层高于7000英尺
阴天层高于12000英尺
从 14日的 0300点(UTC)
风速4节,风向多变
能見度: 10公里
多云层高于25000英尺

TAF: KPTK 130520Z 1306/1406 18008KT P6SM SCT100 SCT250 WS017/20045KT FM131100 19009KT P6SM SCT070 BKN100 FM131800 17006KT P6SM BKN070 OVC120 FM140300 VRB04KT P6SM BKN250

超过4000个机场的气象观测和天气预报(METAR&TAF报告)。

可查询的气象台以黄色和红色小点在地图上表示。

将鼠标移到小点上方,可查看气象台名称。

然后点击查看天气观测和预报。

如需切换地图:点击带黑十字的绿色按钮放大地图;点击带横线的绿色按钮缩小地图;或者点击绿色箭头查看邻近地区的地图。


METAR-TAF: